Solrod Strand, Denmark
Current Conditions -  °F | °C
As of 12:20 PM on Friday 24 Oct 2014 (Local Time) from EKRK Reporting Station
Broken Clouds Broken Clouds  
Wind Chill: 54°   Ceiling: 4200
Heat Index: 54°   Visibility: 6mi
Dew Point: 50°   Wind: 12mph
Humidity: 88%   Direction: 170°S
Pressure: 30.12"   Gusts: NA
Location:  55.53°N, 12.22°E
Report Text: EKRK 241020Z AUTO 17010KT 9999NDV FEW011/// SCT014///BKN042/// 12/10 Q1020
Loading
Personal Weather Stations






























Interactive Weather Map
Tropical Storm Tracking
New forecast layout! Learn more

10-Day Weather Forecast

Advertisements
Track Severe Weather on mobile